Tiete, Brazil
Current Conditions -  °F | °C
As of 5:00 AM on Friday 28 Nov 2014 (Local Time) from SBKP Reporting Station
Clear Clear  
Wind Chill: 66°   Ceiling: Unl
Heat Index: 66°   Visibility: 6mi
Dew Point: 61°   Wind: 8mph
Humidity: 83%   Direction: 190°S
Pressure: 29.97"   Gusts: NA
Location:  23.12°S, 47.72°W
Report Text: SBKP 280700Z 19007KT CAVOK 19/16 Q1015
Loading
Personal Weather Stations






























Interactive Weather Map New forecast layout! Learn more

10-Day Weather Forecast

Advertisements
Track Severe Weather on mobile